Hannover Airport

EDDV · 下萨克森, 德国

罗盘
风向 的 风向 的 风向 到 风向 140° 汉诺威-朗根哈根机场 9L/27R
风: 3 kt, 1 beaufort

2 kt

2 kt
改变
0 ft 1.000 2.000 3.000 4.000 5.000
CAVOK
METAR EDDV 010450Z AUTO 14003KT 090V180 CAVOK 05/02 Q1004 NOSIG

METAR 汉诺威-朗根哈根机场 - EDDV/HAJ

汉诺威-朗根哈根机场是,德国中的大型机场。 该机场位于纬度52,46226和经度9,68628。 该机场有3条跑道: 9L/27R, 9R/27L 和 9C/27C. 本场的ICAO机场代码为EDDV。 该机场的IATA代码为HAJ。 机场在Bremen FIR中。

该航空气象观测是针对汉诺威-朗根哈根机场在2024年3月1日 05:50, 当地时间进行的。

机场观察

风向为140°,速度为3 kt。 风向在090°和180°之间变化。

天气为CAVOK。这意味着在5.000 ft或MSA(最低安全高度)以下(以较高者为准)以下没有云。这也意味着没有观测到积雨云或高耸的积云,可见度为10 km 或者更多或更高。此外,不会有雾,降雨或其他重要天气。

温度为5 °C,阵风为2 °C。 露点为2 °C,相对湿度为81%。 海平面上的气压为1004 hPa (QNH)。

白天

今天,太阳从07:06升起,在18:00降落。 这适用于汉诺威-朗根哈根机场,世界夏令时可能有所不同。 当地时间与世界标准时间之间的时差为+1 小时。 当前,没有夏令时有效。

公司介绍

在这个机场,你可以找到跳伞中心。 本场上唯一已知的公司是FSV Hannover e.V.。

体会

到Vliegles.nl去找飞行课程,跳伞和其他飞行体验。 浏览页面,了解汉诺威-朗根哈根机场附近所有可用的活动。 你也可以使用搜索功能来寻找你所在地附近的特定飞行课程、跳伞或其他飞行体验。

跑道

Id 标题 侧风 逆风 侧风 %
9L/27R 093°-273° 2 kt 2 kt 73 %
9R/27L 093°-273° 2 kt 2 kt 73 %
9C/27C 093°-273° 2 kt 2 kt 73 %

逆风成分最大的方向会被突出显示,并用于横风计算。 这并不一定意味着这个方向在使用。

温度 & 天气

温度 5 °C
露点 2 °C
相对湿度 81%
风寒 2 °C
Kp-index 3 (0-9)

白天

日出
07:06 (49m)
中午
12:33
日落
18:00

小工具

你想在你的网站上有一个关于汉诺威-朗根哈根机场的当前航空天气(METAR)的小部件吗?

显示HTML代码
?>